Time;durP1;ratioP1;P1;durP2;ratioP2;P2;SDS_P1;SDS_P2;PMS_P1;PMS_P2;Temp;Humidity;BMP_temperature;BMP_pressure;BME280_temperature;BME280_humidity;BME280_pressure;Samples;Min_cycle;Max_cycle;Signal;HPM_P1;HPM_P2
2023/03/14 00:02:19;;;;;;;23.52;4.45;;;;;;;;;;4982708;28;20387;-78
2023/03/14 00:04:45;;;;;;;27.65;5.38;;;;;;;;;;4992939;28;20045;-79
2023/03/14 00:07:12;;;;;;;25.80;5.10;;;;;;;;;;4983944;28;20034;-78
2023/03/14 00:09:38;;;;;;;33.63;5.22;;;;;;;;;;4961993;28;20041;-78
2023/03/14 00:12:04;;;;;;;24.90;4.68;;;;;;;;;;4987636;28;20028;-79
2023/03/14 00:14:32;;;;;;;28.52;5.03;;;;;;;;;;4987801;28;20383;-77
2023/03/14 00:16:58;;;;;;;27.20;5.85;;;;;;;;;;4988662;28;20026;-79
2023/03/14 00:19:24;;;;;;;28.95;6.47;;;;;;;;;;4988657;28;20471;-78
2023/03/14 00:21:50;;;;;;;28.15;5.80;;;;;;;;;;4991335;28;20507;-79
2023/03/14 00:24:16;;;;;;;31.40;4.93;;;;;;;;;;4989603;28;20109;-78
2023/03/14 00:26:42;;;;;;;24.00;4.80;;;;;;;;;;4991341;28;20027;-78
2023/03/14 00:29:08;;;;;;;29.58;4.45;;;;;;;;;;4987316;28;20727;-79
2023/03/14 00:31:35;;;;;;;21.20;5.00;;;;;;;;;;4989534;28;20026;-78
2023/03/14 00:34:01;;;;;;;34.78;5.90;;;;;;;;;;4991743;28;20034;-79
2023/03/14 00:36:28;;;;;;;17.20;4.13;;;;;;;;;;4984849;28;20038;-78
2023/03/14 00:38:54;;;;;;;22.02;3.90;;;;;;;;;;4987827;28;20081;-78
2023/03/14 00:41:22;;;;;;;23.65;4.45;;;;;;;;;;4988878;28;20022;-78
2023/03/14 00:43:48;;;;;;;14.75;4.28;;;;;;;;;;4987384;28;20327;-79
2023/03/14 00:46:14;;;;;;;30.77;4.35;;;;;;;;;;4977807;28;20086;-79
2023/03/14 00:48:40;;;;;;;26.73;3.80;;;;;;;;;;4985218;28;20109;-79
2023/03/14 00:51:08;;;;;;;28.15;5.40;;;;;;;;;;4989809;28;20494;-80
2023/03/14 00:53:37;;;;;;;29.88;4.80;;;;;;;;;;4985920;28;20038;-78
2023/03/14 00:56:09;;;;;;;30.30;4.32;;;;;;;;;;4964740;28;20125;-80
2023/03/14 00:58:37;;;;;;;23.77;4.43;;;;;;;;;;4980758;28;20145;-80
2023/03/14 01:01:07;;;;;;;21.55;3.75;;;;;;;;;;4988078;28;20027;-82
2023/03/14 01:03:33;;;;;;;21.60;4.47;;;;;;;;;;4971785;28;20343;-80
2023/03/14 01:06:12;;;;;;;30.65;4.28;;;;;;;;;;4990872;28;20058;-81
2023/03/14 01:08:38;;;;;;;25.55;4.32;;;;;;;;;;4964996;28;20054;-81
2023/03/14 01:11:09;;;;;;;32.95;4.53;;;;;;;;;;4984538;28;20526;-81
2023/03/14 01:13:36;;;;;;;25.70;6.30;;;;;;;;;;4990840;28;20116;-80
2023/03/14 01:16:06;;;;;;;24.30;3.97;;;;;;;;;;4963977;28;20027;-81
2023/03/14 01:18:33;;;;;;;25.15;4.43;;;;;;;;;;4978764;28;20053;-78
2023/03/14 01:20:59;;;;;;;20.02;5.45;;;;;;;;;;4990753;28;20471;-80
2023/03/14 01:23:25;;;;;;;19.88;5.00;;;;;;;;;;4980387;28;20030;-79
2023/03/14 01:25:51;;;;;;;18.42;5.05;;;;;;;;;;4976985;28;20446;-79
2023/03/14 01:28:17;;;;;;;20.83;3.97;;;;;;;;;;4990087;28;20474;-78
2023/03/14 01:30:43;;;;;;;21.67;3.40;;;;;;;;;;4982912;28;20384;-78
2023/03/14 01:33:11;;;;;;;20.05;4.05;;;;;;;;;;4990160;28;20379;-79
2023/03/14 01:35:37;;;;;;;22.48;3.33;;;;;;;;;;4973153;28;20030;-80
2023/03/14 01:38:03;;;;;;;21.05;3.28;;;;;;;;;;4990949;28;20419;-80
2023/03/14 01:40:29;;;;;;;19.23;3.03;;;;;;;;;;4970727;28;20038;-79
2023/03/14 01:42:56;;;;;;;19.50;3.55;;;;;;;;;;4990852;28;20041;-78
2023/03/14 01:45:40;;;;;;;20.88;3.72;;;;;;;;;;4965369;28;20038;-78
2023/03/14 01:48:06;;;;;;;29.23;4.30;;;;;;;;;;4988414;28;20038;-82
2023/03/14 01:50:33;;;;;;;24.40;3.40;;;;;;;;;;4984759;28;20420;-79
2023/03/14 01:52:59;;;;;;;15.13;3.00;;;;;;;;;;4990003;28;20026;-80
2023/03/14 01:55:25;;;;;;;21.13;2.92;;;;;;;;;;4988317;28;20041;-79
2023/03/14 01:57:53;;;;;;;17.65;3.53;;;;;;;;;;4989304;28;20041;-79
2023/03/14 02:00:21;;;;;;;25.90;4.63;;;;;;;;;;4989474;28;20023;-79
2023/03/14 02:02:50;;;;;;;18.13;3.13;;;;;;;;;;4982373;28;20026;-79
2023/03/14 02:05:17;;;;;;;25.42;4.22;;;;;;;;;;4984518;28;20046;-79
2023/03/14 02:07:56;;;;;;;18.95;2.72;;;;;;;;;;4989700;28;20549;-80
2023/03/14 02:10:27;;;;;;;15.95;3.88;;;;;;;;;;4993432;28;20026;-80
2023/03/14 02:12:55;;;;;;;19.73;4.00;;;;;;;;;;4988844;28;20038;-79
2023/03/14 02:15:21;;;;;;;21.95;3.95;;;;;;;;;;4983096;28;20035;-78
2023/03/14 02:17:48;;;;;;;16.55;2.42;;;;;;;;;;4976321;28;20049;-78
2023/03/14 02:20:20;;;;;;;13.45;2.25;;;;;;;;;;4973740;28;20124;-79
2023/03/14 02:22:47;;;;;;;17.23;2.75;;;;;;;;;;4986336;28;20037;-78
2023/03/14 02:25:21;;;;;;;19.38;2.50;;;;;;;;;;4987089;28;20166;-78
2023/03/14 02:27:47;;;;;;;13.52;2.08;;;;;;;;;;4978375;28;20030;-78
2023/03/14 02:30:15;;;;;;;12.10;2.50;;;;;;;;;;4990526;28;20037;-77
2023/03/14 02:32:43;;;;;;;15.88;2.72;;;;;;;;;;4981981;28;20035;-77
2023/03/14 02:35:11;;;;;;;24.45;4.68;;;;;;;;;;4989497;28;20062;-78
2023/03/14 02:37:41;;;;;;;19.42;3.00;;;;;;;;;;4988252;28;20219;-76
2023/03/14 02:40:08;;;;;;;15.90;2.70;;;;;;;;;;4988425;28;20038;-77
2023/03/14 02:42:34;;;;;;;24.15;3.17;;;;;;;;;;4988806;28;20054;-77
2023/03/14 02:45:00;;;;;;;16.92;3.45;;;;;;;;;;4989518;28;20398;-78
2023/03/14 02:47:30;;;;;;;22.42;2.90;;;;;;;;;;4983331;28;20029;-77
2023/03/14 02:50:01;;;;;;;20.92;3.22;;;;;;;;;;4989171;28;20096;-77
2023/03/14 02:52:27;;;;;;;24.75;3.80;;;;;;;;;;4989159;28;20148;-77
2023/03/14 02:54:53;;;;;;;13.75;2.88;;;;;;;;;;4991355;28;20147;-77
2023/03/14 02:57:19;;;;;;;17.23;2.55;;;;;;;;;;4986559;28;20045;-78
2023/03/14 02:59:45;;;;;;;22.52;3.10;;;;;;;;;;4989827;28;20026;-77
2023/03/14 03:02:11;;;;;;;19.75;3.58;;;;;;;;;;4970865;28;20122;-82
2023/03/14 03:04:37;;;;;;;15.80;2.80;;;;;;;;;;4983595;28;20047;-78
2023/03/14 03:07:03;;;;;;;19.52;3.58;;;;;;;;;;4985910;28;20030;-78
2023/03/14 03:09:29;;;;;;;26.48;3.38;;;;;;;;;;4983823;28;20050;-79
2023/03/14 03:11:55;;;;;;;27.48;4.57;;;;;;;;;;4993614;28;20391;-82
2023/03/14 03:14:21;;;;;;;19.85;3.83;;;;;;;;;;4987420;28;20447;-77
2023/03/14 03:16:47;;;;;;;21.63;3.38;;;;;;;;;;4991257;28;20513;-79
2023/03/14 03:19:14;;;;;;;21.10;3.15;;;;;;;;;;4977964;28;20046;-79
2023/03/14 03:21:40;;;;;;;25.60;4.57;;;;;;;;;;4991770;28;20030;-78
2023/03/14 03:24:06;;;;;;;29.63;3.85;;;;;;;;;;4984849;28;20030;-80
2023/03/14 03:26:34;;;;;;;19.08;3.90;;;;;;;;;;4974638;28;20038;-79
2023/03/14 03:29:00;;;;;;;23.85;3.47;;;;;;;;;;4973455;28;20019;-78
2023/03/14 03:31:26;;;;;;;26.88;4.55;;;;;;;;;;4982875;28;20030;-78
2023/03/14 03:33:52;;;;;;;33.13;3.90;;;;;;;;;;4977235;28;20436;-78
2023/03/14 03:36:25;;;;;;;27.95;4.07;;;;;;;;;;4989207;28;20065;-77
2023/03/14 03:38:51;;;;;;;32.70;4.70;;;;;;;;;;4982093;28;20037;-78
2023/03/14 03:41:17;;;;;;;30.98;4.28;;;;;;;;;;4988498;28;20101;-78
2023/03/14 03:43:43;;;;;;;36.28;5.28;;;;;;;;;;4986420;28;20089;-77
2023/03/14 03:46:09;;;;;;;28.88;4.70;;;;;;;;;;4982026;28;20038;-79
2023/03/14 03:48:36;;;;;;;34.75;3.85;;;;;;;;;;4977705;28;20364;-79
2023/03/14 03:51:02;;;;;;;38.25;8.13;;;;;;;;;;4986250;28;20101;-80
2023/03/14 03:53:28;;;;;;;28.80;4.30;;;;;;;;;;4975187;28;20479;-80
2023/03/14 03:55:55;;;;;;;36.33;4.68;;;;;;;;;;4990786;28;20427;-79
2023/03/14 03:58:21;;;;;;;28.95;3.85;;;;;;;;;;4977057;28;20530;-80
2023/03/14 04:00:47;;;;;;;27.08;3.85;;;;;;;;;;4984363;28;20077;-76
2023/03/14 04:03:13;;;;;;;33.00;4.82;;;;;;;;;;4993527;28;20030;-76
2023/03/14 04:05:39;;;;;;;39.60;9.20;;;;;;;;;;4991682;28;20082;-81
2023/03/14 04:08:05;;;;;;;27.13;4.93;;;;;;;;;;4989925;28;20039;-80
2023/03/14 04:10:34;;;;;;;30.02;5.57;;;;;;;;;;4988309;28;20030;-78
2023/03/14 04:13:00;;;;;;;37.03;5.20;;;;;;;;;;4992222;28;20117;-77
2023/03/14 04:15:26;;;;;;;25.95;4.82;;;;;;;;;;4990163;28;20488;-77
2023/03/14 04:17:56;;;;;;;39.53;5.00;;;;;;;;;;4978455;28;20031;-77
2023/03/14 04:20:22;;;;;;;29.73;4.43;;;;;;;;;;4985697;28;20026;-76
2023/03/14 04:22:48;;;;;;;21.65;4.95;;;;;;;;;;4989491;28;20031;-77
2023/03/14 04:25:17;;;;;;;27.38;3.75;;;;;;;;;;4991218;28;20483;-77
2023/03/14 04:27:43;;;;;;;28.38;3.80;;;;;;;;;;4968686;28;20041;-77
2023/03/14 04:30:09;;;;;;;18.75;4.43;;;;;;;;;;4989089;28;20038;-77
2023/03/14 04:32:35;;;;;;;25.35;4.18;;;;;;;;;;4980088;28;20347;-76
2023/03/14 04:35:01;;;;;;;22.20;4.28;;;;;;;;;;4984046;28;20037;-76
2023/03/14 04:37:27;;;;;;;34.28;6.05;;;;;;;;;;4991335;28;20549;-76
2023/03/14 04:39:54;;;;;;;31.55;5.38;;;;;;;;;;4974618;28;20065;-76
2023/03/14 04:42:20;;;;;;;29.70;5.43;;;;;;;;;;4987188;28;20023;-76
2023/03/14 04:44:49;;;;;;;33.08;7.53;;;;;;;;;;4978832;28;20029;-76
2023/03/14 04:47:15;;;;;;;23.83;4.88;;;;;;;;;;4991352;28;20057;-76
2023/03/14 04:49:41;;;;;;;31.80;6.70;;;;;;;;;;4988738;28;20027;-78
2023/03/14 04:52:07;;;;;;;24.27;5.43;;;;;;;;;;4981251;28;20037;-79
2023/03/14 04:54:33;;;;;;;30.77;6.55;;;;;;;;;;4985904;28;20070;-77
2023/03/14 04:56:59;;;;;;;21.63;5.65;;;;;;;;;;4975015;28;20046;-78
2023/03/14 04:59:25;;;;;;;22.17;6.68;;;;;;;;;;4987923;28;20050;-75
2023/03/14 05:01:51;;;;;;;24.58;7.38;;;;;;;;;;4982817;28;20068;-79
2023/03/14 05:04:17;;;;;;;16.25;6.13;;;;;;;;;;4990344;28;20081;-80
2023/03/14 05:06:44;;;;;;;23.55;6.45;;;;;;;;;;4989393;28;20137;-79
2023/03/14 05:09:10;;;;;;;27.05;7.18;;;;;;;;;;4970960;28;20105;-81
2023/03/14 05:11:36;;;;;;;19.35;6.70;;;;;;;;;;4992112;28;20383;-80
2023/03/14 05:14:05;;;;;;;26.65;6.90;;;;;;;;;;4990700;28;20101;-78
2023/03/14 05:16:31;;;;;;;24.23;7.55;;;;;;;;;;4963202;28;20041;-78
2023/03/14 05:18:57;;;;;;;15.50;5.90;;;;;;;;;;4989098;28;20038;-78
2023/03/14 05:21:23;;;;;;;14.20;6.03;;;;;;;;;;4992564;28;20042;-78
2023/03/14 05:23:50;;;;;;;17.13;6.05;;;;;;;;;;4985176;28;20077;-78
2023/03/14 05:26:16;;;;;;;19.42;6.40;;;;;;;;;;4981480;28;20042;-77
2023/03/14 05:28:43;;;;;;;14.10;5.85;;;;;;;;;;4979187;28;20106;-77
2023/03/14 05:31:10;;;;;;;19.77;6.25;;;;;;;;;;4989458;28;20038;-78
2023/03/14 05:33:36;;;;;;;18.35;6.03;;;;;;;;;;4992417;28;20101;-77
2023/03/14 05:36:02;;;;;;;15.68;5.15;;;;;;;;;;4970091;28;20041;-78
2023/03/14 05:38:28;;;;;;;15.90;6.15;;;;;;;;;;4992164;28;20103;-77
2023/03/14 05:40:54;;;;;;;18.98;6.25;;;;;;;;;;4991930;28;20038;-77
2023/03/14 05:43:20;;;;;;;13.45;5.68;;;;;;;;;;4983511;28;20030;-77
2023/03/14 05:45:46;;;;;;;15.40;5.72;;;;;;;;;;4983048;28;20034;-76
2023/03/14 05:48:12;;;;;;;15.68;6.10;;;;;;;;;;4991802;28;20141;-77
2023/03/14 05:50:39;;;;;;;16.02;5.82;;;;;;;;;;4993518;28;20176;-77
2023/03/14 05:53:05;;;;;;;17.38;5.47;;;;;;;;;;4990230;28;20033;-79
2023/03/14 05:55:31;;;;;;;13.85;5.43;;;;;;;;;;4989704;28;20034;-77
2023/03/14 05:57:57;;;;;;;17.52;5.60;;;;;;;;;;4985901;28;20062;-76
2023/03/14 06:00:23;;;;;;;20.15;6.57;;;;;;;;;;4983197;28;20127;-77
2023/03/14 06:02:49;;;;;;;12.18;4.93;;;;;;;;;;4989909;28;20439;-76
2023/03/14 06:05:15;;;;;;;19.20;5.03;;;;;;;;;;4968278;28;20078;-78
2023/03/14 06:07:41;;;;;;;18.92;5.88;;;;;;;;;;4972398;28;20031;-78
2023/03/14 06:10:08;;;;;;;17.13;5.65;;;;;;;;;;4969471;28;20038;-79
2023/03/14 06:12:34;;;;;;;12.25;4.47;;;;;;;;;;4971545;28;20035;-78
2023/03/14 06:15:00;;;;;;;11.70;5.10;;;;;;;;;;4968487;28;20391;-77
2023/03/14 06:17:26;;;;;;;12.40;4.80;;;;;;;;;;4967369;28;20118;-77
2023/03/14 06:19:52;;;;;;;19.33;4.40;;;;;;;;;;4971640;28;20034;-77
2023/03/14 06:22:19;;;;;;;12.65;4.68;;;;;;;;;;4967158;28;20035;-77
2023/03/14 06:24:45;;;;;;;12.15;3.28;;;;;;;;;;4974687;28;20113;-76
2023/03/14 06:27:11;;;;;;;11.80;2.13;;;;;;;;;;4973663;28;20034;-78
2023/03/14 06:29:37;;;;;;;10.40;1.65;;;;;;;;;;4973458;28;20037;-76
2023/03/14 06:32:04;;;;;;;15.68;1.73;;;;;;;;;;4968927;28;20090;-77
2023/03/14 06:34:30;;;;;;;16.85;1.88;;;;;;;;;;4972387;28;20043;-76
2023/03/14 06:36:56;;;;;;;7.47;1.10;;;;;;;;;;4979940;28;20035;-76
2023/03/14 06:39:22;;;;;;;12.02;1.48;;;;;;;;;;4970391;28;20035;-76
2023/03/14 06:41:48;;;;;;;16.33;1.83;;;;;;;;;;4969806;28;20387;-77
2023/03/14 06:44:14;;;;;;;12.18;1.73;;;;;;;;;;4975211;28;20049;-76
2023/03/14 06:46:40;;;;;;;15.73;2.10;;;;;;;;;;4970493;28;20027;-77
2023/03/14 06:49:06;;;;;;;18.48;1.73;;;;;;;;;;4975976;28;20038;-77
2023/03/14 06:51:32;;;;;;;15.88;1.80;;;;;;;;;;4968806;28;20463;-77
2023/03/14 06:53:58;;;;;;;16.10;1.90;;;;;;;;;;4975733;28;20027;-76
2023/03/14 06:56:24;;;;;;;16.17;1.63;;;;;;;;;;4969044;28;20047;-76
2023/03/14 06:58:50;;;;;;;7.18;1.02;;;;;;;;;;4971918;28;20082;-76
2023/03/14 07:01:27;;;;;;;13.27;1.73;;;;;;;;;;4972287;28;20504;-76
2023/03/14 07:03:53;;;;;;;12.57;1.75;;;;;;;;;;4972504;28;20092;-77
2023/03/14 07:06:19;;;;;;;10.13;1.20;;;;;;;;;;4989843;28;20172;-78
2023/03/14 07:08:46;;;;;;;14.90;3.38;;;;;;;;;;4992354;28;20088;-77
2023/03/14 07:11:12;;;;;;;9.75;1.27;;;;;;;;;;4993944;28;20411;-79
2023/03/14 07:13:38;;;;;;;12.07;1.85;;;;;;;;;;4991192;28;20057;-77
2023/03/14 07:16:05;;;;;;;12.05;1.33;;;;;;;;;;4988628;28;20034;-79
2023/03/14 07:18:31;;;;;;;6.25;0.90;;;;;;;;;;4997915;28;20061;-77
2023/03/14 07:20:57;;;;;;;10.57;1.00;;;;;;;;;;4994882;28;20031;-78
2023/03/14 07:23:23;;;;;;;7.93;1.15;;;;;;;;;;4992934;28;20034;-77
2023/03/14 07:25:50;;;;;;;8.80;1.35;;;;;;;;;;4965313;28;20034;-77
2023/03/14 07:28:16;;;;;;;11.35;1.02;;;;;;;;;;4988892;28;20042;-77
2023/03/14 07:30:43;;;;;;;6.78;1.63;;;;;;;;;;4990320;28;20476;-77
2023/03/14 07:33:09;;;;;;;7.72;1.52;;;;;;;;;;4989107;28;20035;-77
2023/03/14 07:35:35;;;;;;;6.13;0.65;;;;;;;;;;4980906;28;20121;-77
2023/03/14 07:38:01;;;;;;;7.07;0.85;;;;;;;;;;4972427;28;20801;-77
2023/03/14 07:40:27;;;;;;;7.53;0.82;;;;;;;;;;4991167;28;20193;-77
2023/03/14 07:42:55;;;;;;;9.85;1.63;;;;;;;;;;4975883;28;20034;-77
2023/03/14 07:45:21;;;;;;;6.72;0.90;;;;;;;;;;4972068;28;20100;-76
2023/03/14 07:47:47;;;;;;;7.18;0.90;;;;;;;;;;4976740;28;20117;-76
2023/03/14 07:50:13;;;;;;;7.55;1.30;;;;;;;;;;4989417;28;20034;-75
2023/03/14 07:52:39;;;;;;;3.38;0.70;;;;;;;;;;4976718;28;20056;-76
2023/03/14 07:55:05;;;;;;;4.88;0.90;;;;;;;;;;4991044;28;20062;-77
2023/03/14 07:57:31;;;;;;;7.30;1.17;;;;;;;;;;4975646;28;20355;-75
2023/03/14 07:59:58;;;;;;;12.30;1.17;;;;;;;;;;4983501;28;20062;-75
2023/03/14 08:02:24;;;;;;;3.15;0.70;;;;;;;;;;4988759;28;20030;-76
2023/03/14 08:04:50;;;;;;;8.95;1.20;;;;;;;;;;4965397;28;20058;-77
2023/03/14 08:07:16;;;;;;;9.05;0.90;;;;;;;;;;4964751;28;20047;-79
2023/03/14 08:09:42;;;;;;;12.40;1.70;;;;;;;;;;4967124;28;20049;-76
2023/03/14 08:12:09;;;;;;;8.70;1.77;;;;;;;;;;4988169;28;20387;-75
2023/03/14 08:14:35;;;;;;;12.98;1.45;;;;;;;;;;4979805;28;20404;-74
2023/03/14 08:17:01;;;;;;;8.75;1.77;;;;;;;;;;4980927;28;20038;-74
2023/03/14 08:19:27;;;;;;;6.50;0.80;;;;;;;;;;4986560;28;20051;-73
2023/03/14 08:21:54;;;;;;;7.93;1.73;;;;;;;;;;4983720;28;20030;-74
2023/03/14 08:24:20;;;;;;;12.13;1.30;;;;;;;;;;4970663;28;20444;-78
2023/03/14 08:26:46;;;;;;;8.02;1.77;;;;;;;;;;4985815;28;20057;-78
2023/03/14 08:29:12;;;;;;;12.20;2.00;;;;;;;;;;4984641;28;20031;-78
2023/03/14 08:31:38;;;;;;;7.93;1.00;;;;;;;;;;4981837;28;20350;-74
2023/03/14 08:34:06;;;;;;;8.82;1.38;;;;;;;;;;4985461;28;20037;-78
2023/03/14 08:36:33;;;;;;;7.78;1.33;;;;;;;;;;4971885;28;20045;-75
2023/03/14 08:38:59;;;;;;;8.65;1.40;;;;;;;;;;4976428;28;20487;-74
2023/03/14 08:41:25;;;;;;;16.65;2.45;;;;;;;;;;4966554;28;20495;-75
2023/03/14 08:43:51;;;;;;;17.27;2.35;;;;;;;;;;4978530;28;20034;-75
2023/03/14 08:46:17;;;;;;;17.52;2.58;;;;;;;;;;4984521;28;20476;-75
2023/03/14 08:48:43;;;;;;;13.65;2.00;;;;;;;;;;4981236;28;20034;-75
2023/03/14 08:51:10;;;;;;;19.70;3.67;;;;;;;;;;4987481;28;20038;-77
2023/03/14 08:53:37;;;;;;;19.70;2.33;;;;;;;;;;4980389;28;20026;-75
2023/03/14 08:56:05;;;;;;;14.10;3.08;;;;;;;;;;4987748;28;20511;-77
2023/03/14 08:58:32;;;;;;;14.77;3.10;;;;;;;;;;4954376;28;20034;-76
2023/03/14 09:00:58;;;;;;;23.83;3.38;;;;;;;;;;4975377;28;20023;-78
2023/03/14 09:03:24;;;;;;;15.90;3.22;;;;;;;;;;4990193;28;20042;-78
2023/03/14 09:05:51;;;;;;;22.00;3.05;;;;;;;;;;4985822;28;20059;-74
2023/03/14 09:08:17;;;;;;;24.40;3.38;;;;;;;;;;4978639;28;20376;-78
2023/03/14 09:10:43;;;;;;;22.20;2.75;;;;;;;;;;4985010;28;20027;-74
2023/03/14 09:13:09;;;;;;;17.40;2.70;;;;;;;;;;4987261;28;20395;-74
2023/03/14 09:15:35;;;;;;;22.02;2.80;;;;;;;;;;4980795;28;20062;-75
2023/03/14 09:18:10;;;;;;;25.63;4.43;;;;;;;;;;5124571;27;20649;-77
2023/03/14 09:20:36;;;;;;;26.48;4.30;;;;;;;;;;5101691;28;20393;-77
2023/03/14 09:23:02;;;;;;;25.35;5.63;;;;;;;;;;5100173;28;20089;-77
2023/03/14 09:25:28;;;;;;;21.27;3.70;;;;;;;;;;5110977;27;20504;-80
2023/03/14 09:27:54;;;;;;;29.80;3.75;;;;;;;;;;5104427;28;20508;-77
2023/03/14 09:30:20;;;;;;;22.95;3.47;;;;;;;;;;5096091;28;20054;-79
2023/03/14 09:32:47;;;;;;;30.73;5.75;;;;;;;;;;5086066;28;20485;-78
2023/03/14 09:35:13;;;;;;;26.67;3.63;;;;;;;;;;5107049;28;20430;-78
2023/03/14 09:37:39;;;;;;;30.15;3.65;;;;;;;;;;5089283;28;20435;-75
2023/03/14 09:40:10;;;;;;;36.15;5.55;;;;;;;;;;5092090;28;20407;-78
2023/03/14 09:42:38;;;;;;;28.50;3.92;;;;;;;;;;5084485;28;20040;-77
2023/03/14 09:45:07;;;;;;;22.35;3.13;;;;;;;;;;5093048;28;20028;-78
2023/03/14 09:47:34;;;;;;;20.55;4.65;;;;;;;;;;5092701;28;20417;-76
2023/03/14 09:50:06;;;;;;;24.73;4.05;;;;;;;;;;5104726;28;20232;-77
2023/03/14 09:52:34;;;;;;;25.75;3.72;;;;;;;;;;5103214;28;20444;-76
2023/03/14 09:55:04;;;;;;;30.63;4.70;;;;;;;;;;5102292;28;20032;-76
2023/03/14 09:57:32;;;;;;;20.85;3.17;;;;;;;;;;5098869;28;20063;-78
2023/03/14 10:00:09;;;;;;;22.80;4.05;;;;;;;;;;5103278;28;20376;-77
2023/03/14 10:02:38;;;;;;;20.20;3.30;;;;;;;;;;5103085;28;20025;-76
2023/03/14 10:05:08;;;;;;;22.90;3.15;;;;;;;;;;5117461;28;20036;-78
2023/03/14 10:07:34;;;;;;;23.48;3.63;;;;;;;;;;5105296;28;20039;-79
2023/03/14 10:10:00;;;;;;;24.55;3.25;;;;;;;;;;5100298;28;20032;-79
2023/03/14 10:12:38;;;;;;;22.13;4.82;;;;;;;;;;5122011;27;20032;-77
2023/03/14 10:15:09;;;;;;;24.35;4.80;;;;;;;;;;5113260;27;20064;-79
2023/03/14 10:17:44;;;;;;;21.17;3.47;;;;;;;;;;5114828;27;20050;-78
2023/03/14 10:20:22;;;;;;;15.05;2.95;;;;;;;;;;5097846;28;20028;-79
2023/03/14 10:22:51;;;;;;;14.00;2.90;;;;;;;;;;5096472;28;20469;-77
2023/03/14 10:25:26;;;;;;;15.60;2.78;;;;;;;;;;5098017;28;20028;-76
2023/03/14 10:27:52;;;;;;;20.55;2.88;;;;;;;;;;5081817;28;20033;-76
2023/03/14 10:30:43;;;;;;;11.82;2.47;;;;;;;;;;5083961;28;20388;-76
2023/03/14 10:33:20;;;;;;;16.65;2.90;;;;;;;;;;5082853;28;20335;-77
2023/03/14 10:35:47;;;;;;;19.63;2.88;;;;;;;;;;5093583;28;20534;-78
2023/03/14 10:38:14;;;;;;;21.90;3.15;;;;;;;;;;5072933;28;20055;-76
2023/03/14 10:40:42;;;;;;;22.15;3.60;;;;;;;;;;5086338;28;20032;-74
2023/03/14 10:43:13;;;;;;;9.73;1.95;;;;;;;;;;5084488;28;20107;-79
2023/03/14 10:45:40;;;;;;;17.55;2.33;;;;;;;;;;5073605;28;20098;-78
2023/03/14 10:48:07;;;;;;;15.73;2.22;;;;;;;;;;5087942;28;20097;-79
2023/03/14 10:50:33;;;;;;;9.60;1.70;;;;;;;;;;5091489;28;20020;-77
2023/03/14 10:53:05;;;;;;;14.25;2.10;;;;;;;;;;5092704;28;20500;-78
2023/03/14 10:55:40;;;;;;;13.68;1.90;;;;;;;;;;5093887;28;20088;-78
2023/03/14 10:58:17;;;;;;;15.35;2.63;;;;;;;;;;5081987;28;20083;-81
2023/03/14 11:00:43;;;;;;;12.27;2.28;;;;;;;;;;5104940;28;20056;-77
2023/03/14 11:03:14;;;;;;;13.13;2.40;;;;;;;;;;5091067;28;20032;-81
2023/03/14 11:06:02;;;;;;;7.30;1.67;;;;;;;;;;5090219;28;20278;-79
2023/03/14 11:08:37;;;;;;;14.25;2.42;;;;;;;;;;5080200;28;20030;-78
2023/03/14 11:11:21;;;;;;;8.32;1.83;;;;;;;;;;5085356;28;20373;-81
2023/03/14 11:14:06;;;;;;;13.13;2.17;;;;;;;;;;5081606;28;20153;-77
2023/03/14 11:16:38;;;;;;;10.05;3.00;;;;;;;;;;5071416;28;20468;-73
2023/03/14 11:19:18;;;;;;;7.85;1.88;;;;;;;;;;5083761;28;20028;-77
2023/03/14 11:22:03;;;;;;;11.40;1.33;;;;;;;;;;5094791;28;20028;-77
2023/03/14 11:24:45;;;;;;;12.95;1.60;;;;;;;;;;5073340;28;20028;-78
2023/03/14 11:27:18;;;;;;;19.95;2.22;;;;;;;;;;5073971;28;20040;-81
2023/03/14 11:29:55;;;;;;;14.13;1.55;;;;;;;;;;5070369;28;20023;-77
2023/03/14 11:32:30;;;;;;;8.48;1.25;;;;;;;;;;5084580;28;20035;-77
2023/03/14 11:34:56;;;;;;;4.32;0.90;;;;;;;;;;5069357;28;20040;-75
2023/03/14 11:37:27;;;;;;;5.88;1.05;;;;;;;;;;5075465;28;20059;-76
2023/03/14 11:39:59;;;;;;;5.97;1.48;;;;;;;;;;5067325;28;20071;-78
2023/03/14 11:42:27;;;;;;;9.85;1.05;;;;;;;;;;5069520;28;20043;-76
2023/03/14 11:44:54;;;;;;;4.15;0.88;;;;;;;;;;5071494;28;20029;-75
2023/03/14 11:47:40;;;;;;;9.63;1.40;;;;;;;;;;5069880;28;20064;-77
2023/03/14 11:50:17;;;;;;;7.35;1.60;;;;;;;;;;5081110;28;20040;-76
2023/03/14 11:52:58;;;;;;;8.65;1.20;;;;;;;;;;5070533;28;20024;-75
2023/03/14 11:55:27;;;;;;;5.70;1.77;;;;;;;;;;5086848;28;20024;-75
2023/03/14 11:57:56;;;;;;;5.47;1.10;;;;;;;;;;5071900;28;20020;-77
2023/03/14 12:00:23;;;;;;;12.07;2.80;;;;;;;;;;5073001;28;20077;-77
2023/03/14 12:02:59;;;;;;;10.13;2.10;;;;;;;;;;5089729;28;20388;-77
2023/03/14 12:05:28;;;;;;;13.93;2.00;;;;;;;;;;5072781;28;20115;-78
2023/03/14 12:07:54;;;;;;;9.57;1.30;;;;;;;;;;5086888;28;20024;-80
2023/03/14 12:10:20;;;;;;;11.77;1.67;;;;;;;;;;5081251;28;20032;-79
2023/03/14 12:12:48;;;;;;;8.27;1.90;;;;;;;;;;5079467;28;20035;-79
2023/03/14 12:15:21;;;;;;;14.05;2.03;;;;;;;;;;5075407;28;20028;-79
2023/03/14 12:17:53;;;;;;;10.98;2.10;;;;;;;;;;5078930;28;20063;-79
2023/03/14 12:20:23;;;;;;;20.48;2.20;;;;;;;;;;5082683;28;20020;-79
2023/03/14 12:22:52;;;;;;;8.77;1.98;;;;;;;;;;5081046;28;20039;-77
2023/03/14 12:25:20;;;;;;;9.20;1.60;;;;;;;;;;5078802;28;20101;-75
2023/03/14 12:27:49;;;;;;;17.13;2.60;;;;;;;;;;5076302;28;20047;-78
2023/03/14 12:30:32;;;;;;;17.52;1.35;;;;;;;;;;5079269;28;20028;-78
2023/03/14 12:33:07;;;;;;;8.95;1.70;;;;;;;;;;5082345;28;20017;-79
2023/03/14 12:35:34;;;;;;;8.85;1.83;;;;;;;;;;5091866;28;20104;-78
2023/03/14 12:38:03;;;;;;;6.97;1.55;;;;;;;;;;5076411;28;20506;-79
2023/03/14 12:40:36;;;;;;;13.50;2.13;;;;;;;;;;5069338;28;20035;-78
2023/03/14 12:43:03;;;;;;;11.50;1.60;;;;;;;;;;5090914;28;20025;-80
2023/03/14 12:45:30;;;;;;;8.05;1.65;;;;;;;;;;5090609;28;20044;-79
2023/03/14 12:47:56;;;;;;;9.90;1.73;;;;;;;;;;5087962;28;20471;-78
2023/03/14 12:50:29;;;;;;;9.50;1.45;;;;;;;;;;5088973;28;20132;-79
2023/03/14 12:53:28;;;;;;;6.03;0.95;;;;;;;;;;5091612;28;20020;-79
2023/03/14 12:56:14;;;;;;;9.35;1.73;;;;;;;;;;5048818;28;20093;-79
2023/03/14 12:58:48;;;;;;;6.65;0.90;;;;;;;;;;5068427;28;20081;-79
2023/03/14 13:01:17;;;;;;;9.38;2.22;;;;;;;;;;5089734;28;20469;-79
2023/03/14 13:03:45;;;;;;;8.32;1.13;;;;;;;;;;5089723;28;20063;-80
2023/03/14 13:06:12;;;;;;;5.15;1.52;;;;;;;;;;5071177;28;20090;-79
2023/03/14 13:08:40;;;;;;;8.27;1.92;;;;;;;;;;5075840;28;20036;-79
2023/03/14 13:11:08;;;;;;;7.57;1.73;;;;;;;;;;5088486;28;20024;-79
2023/03/14 13:13:35;;;;;;;7.22;1.40;;;;;;;;;;5089503;28;20043;-78
2023/03/14 13:16:05;;;;;;;13.27;2.72;;;;;;;;;;5090582;28;20503;-79
2023/03/14 13:18:31;;;;;;;7.22;1.75;;;;;;;;;;5089320;28;20048;-78
2023/03/14 13:21:03;;;;;;;12.27;2.15;;;;;;;;;;5088116;28;20078;-78
2023/03/14 13:23:29;;;;;;;;;;;;;;;;;;5083915;28;20033;-79
2023/03/14 13:25:56;;;;;;;9.98;1.40;;;;;;;;;;5066866;28;20001;-78
2023/03/14 13:28:22;;;;;;;5.38;1.10;;;;;;;;;;5072122;28;20017;-78
2023/03/14 13:30:50;;;;;;;9.68;1.60;;;;;;;;;;5076476;28;20078;-77
2023/03/14 13:33:18;;;;;;;7.95;1.65;;;;;;;;;;5098089;28;20064;-78
2023/03/14 13:35:49;;;;;;;8.20;1.20;;;;;;;;;;5092472;28;20026;-77
2023/03/14 13:38:17;;;;;;;12.15;1.38;;;;;;;;;;5085629;28;20554;-77
2023/03/14 13:40:44;;;;;;;6.75;1.50;;;;;;;;;;5081882;28;20425;-77
2023/03/14 13:43:11;;;;;;;9.63;2.00;;;;;;;;;;5072729;28;20044;-78
2023/03/14 13:45:50;;;;;;;6.25;1.17;;;;;;;;;;5087338;28;20023;-76
2023/03/14 13:48:16;;;;;;;11.05;1.92;;;;;;;;;;5067011;28;20036;-78
2023/03/14 13:51:01;;;;;;;9.35;1.73;;;;;;;;;;5090292;28;20082;-77
2023/03/14 13:53:27;;;;;;;11.65;1.52;;;;;;;;;;5089941;28;20350;-77
2023/03/14 13:55:54;;;;;;;13.88;2.22;;;;;;;;;;5088531;28;20039;-77
2023/03/14 13:58:27;;;;;;;6.97;1.70;;;;;;;;;;5083762;28;20121;-77
2023/03/14 14:00:57;;;;;;;6.88;1.63;;;;;;;;;;5077311;28;20028;-77
2023/03/14 14:03:24;;;;;;;15.02;1.40;;;;;;;;;;5110536;28;20030;-77
2023/03/14 14:05:50;;;;;;;7.43;1.85;;;;;;;;;;5066952;28;20024;-78
2023/03/14 14:08:16;;;;;;;7.78;1.38;;;;;;;;;;5094334;28;20036;-79
2023/03/14 14:10:42;;;;;;;9.77;1.33;;;;;;;;;;5092671;28;20062;-78
2023/03/14 14:13:12;;;;;;;6.60;1.52;;;;;;;;;;5081161;28;20040;-79
2023/03/14 14:15:42;;;;;;;11.32;1.35;;;;;;;;;;5073300;28;20526;-77
2023/03/14 14:18:11;;;;;;;8.27;1.35;;;;;;;;;;5093623;28;20446;-78
2023/03/14 14:20:44;;;;;;;9.45;1.13;;;;;;;;;;5091070;28;20029;-77
2023/03/14 14:23:12;;;;;;;9.38;1.42;;;;;;;;;;5090996;28;20032;-77
2023/03/14 14:25:38;;;;;;;10.02;1.30;;;;;;;;;;5092826;28;20503;-77
2023/03/14 14:28:23;;;;;;;4.93;1.05;;;;;;;;;;5074827;28;20384;-77
2023/03/14 14:30:59;;;;;;;18.33;2.92;;;;;;;;;;5080891;28;20088;-76
2023/03/14 14:33:25;;;;;;;7.60;1.10;;;;;;;;;;5092405;28;20028;-77
2023/03/14 14:35:59;;;;;;;7.20;0.93;;;;;;;;;;5091888;28;20033;-77
2023/03/14 14:38:26;;;;;;;6.13;0.90;;;;;;;;;;5082786;28;20043;-77
2023/03/14 14:40:57;;;;;;;6.82;1.20;;;;;;;;;;5106129;27;20048;-77